Brangus — WDB4516 — position and weather

sailwx.info

Track history (hours):
 
Tides and Currents Weather Stations Pressure Air Temp Water Temp Dewpoint Dewpoint Depression Visibility Wind Speed Wind Dir Waves Ship Positions

Brangus

Owner: Great Lakes Dredge & Dock Company, Oak Brook, IL. More information available from US FCC via Universal Licensing System and Coast Guard Vessel Documentation Center.

Last reported at 2014-Nov-23 08:22 UTC. Time now 2014-Nov-23 23:52 UTC.
Position N 25°46' W 080°09'.

Length 46 m; draft 2.3 m.

Type: Tug. MMSI: 366899270.

Date/timePositionNaut miles runAvg speedWind from/ knotsBaromVisibWave heightAir tempDewpointWater temp
2014-Nov-23 08:22N 25°46' W 080°09'0 0.2
2014-Nov-23 06:22N 25°46' W 080°08'0 0.0
2014-Nov-23 02:12N 25°46' W 080°08'1 0.1
2014-Nov-22 20:32N 25°46' W 080°09'0 0.0
2014-Nov-22 18:09N 25°46' W 080°09'0 0.0
2014-Nov-22 16:11N 25°46' W 080°09'0 0.0
2014-Nov-22 15:20N 25°46' W 080°09'1 0.2
2014-Nov-22 12:13N 25°46' W 080°08'1 0.0
2014-Nov-21 05:25N 25°46' W 080°09'0 0.1
2014-Nov-21 04:23N 25°46' W 080°09'0 0.0
2014-Nov-21 00:06N 25°46' W 080°09'0 0.0
2014-Nov-20 18:19N 25°46' W 080°09'0 0.1
2014-Nov-20 17:32N 25°46' W 080°09'0 0.0
2014-Nov-20 15:21N 25°46' W 080°09'0 0.0
2014-Nov-20 14:30N 25°46' W 080°09'0 0.0
2014-Nov-20 07:31N 25°46' W 080°09'0 0.0
2014-Nov-20 05:33N 25°46' W 080°09'0 0.0
2014-Nov-20 04:33N 25°46' W 080°09'0 0.0
2014-Nov-20 02:29N 25°46' W 080°09'0 0.1
2014-Nov-20 01:23N 25°46' W 080°09'0 0.1
2014-Nov-20 00:28N 25°46' W 080°09'0 0.0
2014-Nov-19 20:11N 25°46' W 080°09'0 0.0
2014-Nov-19 15:32N 25°46' W 080°09'0 0.0
2014-Nov-19 14:33N 25°46' W 080°09'0 0.0
2014-Nov-19 13:26N 25°46' W 080°09'0 0.0
2014-Nov-19 11:31N 25°46' W 080°09'0 0.0
2014-Nov-19 10:32N 25°46' W 080°09'0 0.0
2014-Nov-19 09:33N 25°46' W 080°09'0 0.0
2014-Nov-19 08:32N 25°46' W 080°09'0 0.0
2014-Nov-19 07:32N 25°46' W 080°09'0 0.0
2014-Nov-19 06:08N 25°46' W 080°09'1 0.4
2014-Nov-19 04:29N 25°46' W 080°08'0 0.2
2014-Nov-19 02:17N 25°46' W 080°08'0 0.0
2014-Nov-19 01:04N 25°46' W 080°08'0 0.0
2014-Nov-19 00:27N 25°46' W 080°08'3 1.4
2014-Nov-18 22:28N 25°47' W 080°11'3 0.2
2014-Nov-18 10:15N 25°46' W 080°08'0 0.0
2014-Nov-18 09:33N 25°46' W 080°08'0 0.0
2014-Nov-18 08:33N 25°46' W 080°08'0 0.0
2014-Nov-18 07:33N 25°46' W 080°08'0 0.0
2014-Nov-18 06:32N 25°46' W 080°08'0 0.0
2014-Nov-18 05:10N 25°46' W 080°08'0 0.0
2014-Nov-18 02:32N 25°46' W 080°08'0 0.0
2014-Nov-18 00:18N 25°46' W 080°08'0 0.2
2014-Nov-17 22:29N 25°46' W 080°09'0 0.0
2014-Nov-17 21:12N 25°46' W 080°09'1 1.1
2014-Nov-17 20:31N 25°46' W 080°08'2 1.9
2014-Nov-17 19:33N 25°46' W 080°06'0 0.1
2014-Nov-17 18:32N 25°46' W 080°06'2 2.2
2014-Nov-17 17:25N 25°46' W 080°08'1 0.3
2014-Nov-17 15:33N 25°46' W 080°08'2 1.6
2014-Nov-17 14:33N 25°46' W 080°06'0 0.0
2014-Nov-17 13:33N 25°46' W 080°06'0 0.0
2014-Nov-17 12:33N 25°46' W 080°06'0 0.0
2014-Nov-17 11:33N 25°46' W 080°06'0 0.0
2014-Nov-17 10:34N 25°46' W 080°06'0 0.0
2014-Nov-17 09:34N 25°46' W 080°06'5 0.5
2014-Nov-17 01:15N 25°49' W 080°10'5 2.7
2014-Nov-16 23:32N 25°46' W 080°06'0 0.0
2014-Nov-16 22:33N 25°46' W 080°06'0 0.1
2014-Nov-16 21:32N 25°46' W 080°06'0 0.1
2014-Nov-16 20:33N 25°46' W 080°06'0 0.0
2014-Nov-16 19:33N 25°46' W 080°06'0 0.0
2014-Nov-16 18:33N 25°46' W 080°06'0 0.0
2014-Nov-16 17:33N 25°46' W 080°06'0 0.0
2014-Nov-16 16:33N 25°46' W 080°06'0 0.0
2014-Nov-16 15:33N 25°46' W 080°06'0 0.0
2014-Nov-16 14:33N 25°46' W 080°06'0 0.0
2014-Nov-16 13:33N 25°46' W 080°06'0 0.3
2014-Nov-16 12:33N 25°46' W 080°06'0 0.3
2014-Nov-16 11:33N 25°46' W 080°06'0 0.1
2014-Nov-16 10:33N 25°46' W 080°06'0 0.0
2014-Nov-16 09:30N 25°46' W 080°06'0 0.1
2014-Nov-16 08:33N 25°46' W 080°06'0 0.0
2014-Nov-16 07:33N 25°46' W 080°06'0 0.0
2014-Nov-16 06:33N 25°46' W 080°06'0 0.0
2014-Nov-16 05:28N 25°46' W 080°06'0 0.0
2014-Nov-16 04:34N 25°46' W 080°06'0 0.0
2014-Nov-16 03:34N 25°46' W 080°06'0 0.1
2014-Nov-16 02:11N 25°46' W 080°06'0 0.0
2014-Nov-15 20:33N 25°46' W 080°06'0 0.1
2014-Nov-15 18:17N 25°46' W 080°06'0 0.1
2014-Nov-15 17:33N 25°46' W 080°06'0 0.1
2014-Nov-15 16:24N 25°46' W 080°06'0 0.0
2014-Nov-15 12:33N 25°46' W 080°06'0 0.1
2014-Nov-15 10:25N 25°46' W 080°06'0 0.3
2014-Nov-15 09:33N 25°46' W 080°06'0 0.0
2014-Nov-15 08:33N 25°46' W 080°06'0 0.2
2014-Nov-15 07:29N 25°46' W 080°06'0 0.0
2014-Nov-15 06:33N 25°46' W 080°06'0 0.0
2014-Nov-15 03:27N 25°46' W 080°06'0 0.0
2014-Nov-15 00:20N 25°46' W 080°06'2 0.5
2014-Nov-14 20:28N 25°46' W 080°08'1 1.0
2014-Nov-14 19:23N 25°45' W 080°07'1 0.3
2014-Nov-14 16:26N 25°46' W 080°06'0 0.1
2014-Nov-14 15:11N 25°46' W 080°06'1 1.2
2014-Nov-14 14:21N 25°45' W 080°07'1 0.8
2014-Nov-14 12:34N 25°46' W 080°06'0 0.0
2014-Nov-14 09:34N 25°46' W 080°06'0 0.3
2014-Nov-14 08:30N 25°46' W 080°06'0 0.0
2014-Nov-14 07:23N 25°46' W 080°06'0 0.0
2014-Nov-14 06:28N 25°46' W 080°06'0 0.0
2014-Nov-13 20:29N 25°46' W 080°06'0 0.1
2014-Nov-13 18:06N 25°46' W 080°06'0 0.0
2014-Nov-13 16:11N 25°46' W 080°06'0 0.0
2014-Nov-13 12:33N 25°46' W 080°06'0 0.0
2014-Nov-13 11:26N 25°46' W 080°06'0 0.0
2014-Nov-13 10:13N 25°46' W 080°06'0 0.1
2014-Nov-13 09:28N 25°46' W 080°06'  
Track history (hours):
 
Tides and Currents Weather Stations Pressure Air Temp Water Temp Dewpoint Dewpoint Depression Visibility Wind Speed Wind Dir Waves Ship Positions

Brangus

Owner: Great Lakes Dredge & Dock Company, Oak Brook, IL. More information available from US FCC via Universal Licensing System and Coast Guard Vessel Documentation Center.

Last reported at 2014-Nov-23 08:22 UTC. Time now 2014-Nov-23 23:52 UTC.
Position N 25°46' W 080°09'.

Length 46 m; draft 2.3 m.

Type: Tug. MMSI: 366899270.

Date/timePositionNaut miles runAvg speedWind from/ knotsBaromVisibWave heightAir tempDewpointWater temp
2014-Nov-23 08:22N 25°46' W 080°09'0 0.2
2014-Nov-23 06:22N 25°46' W 080°08'0 0.0
2014-Nov-23 02:12N 25°46' W 080°08'1 0.1
2014-Nov-22 20:32N 25°46' W 080°09'0 0.0
2014-Nov-22 18:09N 25°46' W 080°09'0 0.0
2014-Nov-22 16:11N 25°46' W 080°09'0 0.0
2014-Nov-22 15:20N 25°46' W 080°09'1 0.2
2014-Nov-22 12:13N 25°46' W 080°08'1 0.0
2014-Nov-21 05:25N 25°46' W 080°09'0 0.1
2014-Nov-21 04:23N 25°46' W 080°09'0 0.0
2014-Nov-21 00:06N 25°46' W 080°09'0 0.0
2014-Nov-20 18:19N 25°46' W 080°09'0 0.1
2014-Nov-20 17:32N 25°46' W 080°09'0 0.0
2014-Nov-20 15:21N 25°46' W 080°09'0 0.0
2014-Nov-20 14:30N 25°46' W 080°09'0 0.0
2014-Nov-20 07:31N 25°46' W 080°09'0 0.0
2014-Nov-20 05:33N 25°46' W 080°09'0 0.0
2014-Nov-20 04:33N 25°46' W 080°09'0 0.0
2014-Nov-20 02:29N 25°46' W 080°09'0 0.1
2014-Nov-20 01:23N 25°46' W 080°09'0 0.1
2014-Nov-20 00:28N 25°46' W 080°09'0 0.0
2014-Nov-19 20:11N 25°46' W 080°09'0 0.0
2014-Nov-19 15:32N 25°46' W 080°09'0 0.0
2014-Nov-19 14:33N 25°46' W 080°09'0 0.0
2014-Nov-19 13:26N 25°46' W 080°09'0 0.0
2014-Nov-19 11:31N 25°46' W 080°09'0 0.0
2014-Nov-19 10:32N 25°46' W 080°09'0 0.0
2014-Nov-19 09:33N 25°46' W 080°09'0 0.0
2014-Nov-19 08:32N 25°46' W 080°09'0 0.0
2014-Nov-19 07:32N 25°46' W 080°09'0 0.0
2014-Nov-19 06:08N 25°46' W 080°09'1 0.4
2014-Nov-19 04:29N 25°46' W 080°08'0 0.2
2014-Nov-19 02:17N 25°46' W 080°08'0 0.0
2014-Nov-19 01:04N 25°46' W 080°08'0 0.0
2014-Nov-19 00:27N 25°46' W 080°08'3 1.4
2014-Nov-18 22:28N 25°47' W 080°11'3 0.2
2014-Nov-18 10:15N 25°46' W 080°08'0 0.0
2014-Nov-18 09:33N 25°46' W 080°08'0 0.0
2014-Nov-18 08:33N 25°46' W 080°08'0 0.0
2014-Nov-18 07:33N 25°46' W 080°08'0 0.0
2014-Nov-18 06:32N 25°46' W 080°08'0 0.0
2014-Nov-18 05:10N 25°46' W 080°08'0 0.0
2014-Nov-18 02:32N 25°46' W 080°08'0 0.0
2014-Nov-18 00:18N 25°46' W 080°08'0 0.2
2014-Nov-17 22:29N 25°46' W 080°09'0 0.0
2014-Nov-17 21:12N 25°46' W 080°09'1 1.1
2014-Nov-17 20:31N 25°46' W 080°08'2 1.9
2014-Nov-17 19:33N 25°46' W 080°06'0 0.1
2014-Nov-17 18:32N 25°46' W 080°06'2 2.2
2014-Nov-17 17:25N 25°46' W 080°08'1 0.3
2014-Nov-17 15:33N 25°46' W 080°08'2 1.6
2014-Nov-17 14:33N 25°46' W 080°06'0 0.0
2014-Nov-17 13:33N 25°46' W 080°06'0 0.0
2014-Nov-17 12:33N 25°46' W 080°06'0 0.0
2014-Nov-17 11:33N 25°46' W 080°06'0 0.0
2014-Nov-17 10:34N 25°46' W 080°06'0 0.0
2014-Nov-17 09:34N 25°46' W 080°06'5 0.5
2014-Nov-17 01:15N 25°49' W 080°10'5 2.7
2014-Nov-16 23:32N 25°46' W 080°06'0 0.0
2014-Nov-16 22:33N 25°46' W 080°06'0 0.1
2014-Nov-16 21:32N 25°46' W 080°06'0 0.1
2014-Nov-16 20:33N 25°46' W 080°06'0 0.0
2014-Nov-16 19:33N 25°46' W 080°06'0 0.0
2014-Nov-16 18:33N 25°46' W 080°06'0 0.0
2014-Nov-16 17:33N 25°46' W 080°06'0 0.0
2014-Nov-16 16:33N 25°46' W 080°06'0 0.0
2014-Nov-16 15:33N 25°46' W 080°06'0 0.0
2014-Nov-16 14:33N 25°46' W 080°06'0 0.0
2014-Nov-16 13:33N 25°46' W 080°06'0 0.3
2014-Nov-16 12:33N 25°46' W 080°06'0 0.3
2014-Nov-16 11:33N 25°46' W 080°06'0 0.1
2014-Nov-16 10:33N 25°46' W 080°06'0 0.0
2014-Nov-16 09:30N 25°46' W 080°06'0 0.1
2014-Nov-16 08:33N 25°46' W 080°06'0 0.0
2014-Nov-16 07:33N 25°46' W 080°06'0 0.0
2014-Nov-16 06:33N 25°46' W 080°06'0 0.0
2014-Nov-16 05:28N 25°46' W 080°06'0 0.0
2014-Nov-16 04:34N 25°46' W 080°06'0 0.0
2014-Nov-16 03:34N 25°46' W 080°06'0 0.1
2014-Nov-16 02:11N 25°46' W 080°06'0 0.0
2014-Nov-15 20:33N 25°46' W 080°06'0 0.1
2014-Nov-15 18:17N 25°46' W 080°06'0 0.1
2014-Nov-15 17:33N 25°46' W 080°06'0 0.1
2014-Nov-15 16:24N 25°46' W 080°06'0 0.0
2014-Nov-15 12:33N 25°46' W 080°06'0 0.1
2014-Nov-15 10:25N 25°46' W 080°06'0 0.3
2014-Nov-15 09:33N 25°46' W 080°06'0 0.0
2014-Nov-15 08:33N 25°46' W 080°06'0 0.2
2014-Nov-15 07:29N 25°46' W 080°06'0 0.0
2014-Nov-15 06:33N 25°46' W 080°06'0 0.0
2014-Nov-15 03:27N 25°46' W 080°06'0 0.0
2014-Nov-15 00:20N 25°46' W 080°06'2 0.5
2014-Nov-14 20:28N 25°46' W 080°08'1 1.0
2014-Nov-14 19:23N 25°45' W 080°07'1 0.3
2014-Nov-14 16:26N 25°46' W 080°06'0 0.1
2014-Nov-14 15:11N 25°46' W 080°06'1 1.2
2014-Nov-14 14:21N 25°45' W 080°07'1 0.8
2014-Nov-14 12:34N 25°46' W 080°06'0 0.0
2014-Nov-14 09:34N 25°46' W 080°06'0 0.3
2014-Nov-14 08:30N 25°46' W 080°06'0 0.0
2014-Nov-14 07:23N 25°46' W 080°06'0 0.0
2014-Nov-14 06:28N 25°46' W 080°06'0 0.0
2014-Nov-13 20:29N 25°46' W 080°06'0 0.1
2014-Nov-13 18:06N 25°46' W 080°06'0 0.0
2014-Nov-13 16:11N 25°46' W 080°06'0 0.0
2014-Nov-13 12:33N 25°46' W 080°06'0 0.0
2014-Nov-13 11:26N 25°46' W 080°06'0 0.0
2014-Nov-13 10:13N 25°46' W 080°06'0 0.1
2014-Nov-13 09:28N 25°46' W 080°06'  

Dump ship's entire track history